sensor_id;sensor_type;location;lat;lon;timestamp;pressure;altitude;pressure_sealevel;temperature;humidity
26823;BME280;14852;51.910;8.878;2022-11-15T00:00:13;99243.91;;;12.87;57.93
26823;BME280;14852;51.910;8.878;2022-11-15T00:02:58;99252.94;;;12.94;57.96
26823;BME280;14852;51.910;8.878;2022-11-15T00:05:43;99247.44;;;12.99;57.67
26823;BME280;14852;51.910;8.878;2022-11-15T00:08:30;99238.56;;;13.01;58.00
26823;BME280;14852;51.910;8.878;2022-11-15T00:11:15;99242.94;;;13.01;58.31
26823;BME280;14852;51.910;8.878;2022-11-15T00:13:59;99240.22;;;13.02;58.31
26823;BME280;14852;51.910;8.878;2022-11-15T00:16:46;99235.50;;;13.07;58.54
26823;BME280;14852;51.910;8.878;2022-11-15T00:19:30;99239.25;;;13.16;57.92
26823;BME280;14852;51.910;8.878;2022-11-15T00:22:15;99238.84;;;13.22;58.18
26823;BME280;14852;51.910;8.878;2022-11-15T00:25:00;99241.09;;;13.27;58.05
26823;BME280;14852;51.910;8.878;2022-11-15T00:27:44;99233.16;;;13.28;58.13
26823;BME280;14852;51.910;8.878;2022-11-15T00:30:29;99238.72;;;13.24;58.01
26823;BME280;14852;51.910;8.878;2022-11-15T00:33:14;99242.84;;;13.15;58.35
26823;BME280;14852;51.910;8.878;2022-11-15T00:36:16;99235.59;;;13.06;58.00
26823;BME280;14852;51.910;8.878;2022-11-15T00:39:04;99245.03;;;12.96;58.30
26823;BME280;14852;51.910;8.878;2022-11-15T00:41:49;99248.19;;;12.88;58.46
26823;BME280;14852;51.910;8.878;2022-11-15T00:44:34;99239.94;;;12.82;58.32
26823;BME280;14852;51.910;8.878;2022-11-15T00:47:18;99222.84;;;12.78;58.39
26823;BME280;14852;51.910;8.878;2022-11-15T00:50:04;99227.53;;;12.73;58.58
26823;BME280;14852;51.910;8.878;2022-11-15T00:52:48;99215.06;;;12.65;58.59
26823;BME280;14852;51.910;8.878;2022-11-15T00:55:33;99218.91;;;12.59;58.44
26823;BME280;14852;51.910;8.878;2022-11-15T00:58:17;99222.78;;;12.54;58.79
26823;BME280;14852;51.910;8.878;2022-11-15T01:01:10;99222.06;;;12.52;58.89
26823;BME280;14852;51.910;8.878;2022-11-15T01:03:55;99214.53;;;12.47;58.75
26823;BME280;14852;51.910;8.878;2022-11-15T01:06:40;99212.25;;;12.43;58.85
26823;BME280;14852;51.910;8.878;2022-11-15T01:09:24;99206.22;;;12.42;59.17
26823;BME280;14852;51.910;8.878;2022-11-15T01:12:09;99192.25;;;12.43;58.80
26823;BME280;14852;51.910;8.878;2022-11-15T01:14:54;99191.72;;;12.38;59.17
26823;BME280;14852;51.910;8.878;2022-11-15T01:17:38;99193.00;;;12.32;59.02
26823;BME280;14852;51.910;8.878;2022-11-15T01:20:22;99199.03;;;12.33;59.11
26823;BME280;14852;51.910;8.878;2022-11-15T01:23:07;99188.72;;;12.31;59.40
26823;BME280;14852;51.910;8.878;2022-11-15T01:25:51;99184.16;;;12.22;59.29
26823;BME280;14852;51.910;8.878;2022-11-15T01:28:38;99182.78;;;12.17;59.76
26823;BME280;14852;51.910;8.878;2022-11-15T01:31:23;99182.13;;;12.13;59.92
26823;BME280;14852;51.910;8.878;2022-11-15T01:34:08;99178.00;;;12.11;59.72
26823;BME280;14852;51.910;8.878;2022-11-15T01:36:52;99169.34;;;12.10;59.84
26823;BME280;14852;51.910;8.878;2022-11-15T01:39:37;99171.22;;;12.08;59.87
26823;BME280;14852;51.910;8.878;2022-11-15T01:42:22;99169.56;;;12.07;59.90
26823;BME280;14852;51.910;8.878;2022-11-15T01:45:15;99160.81;;;12.08;59.85
26823;BME280;14852;51.910;8.878;2022-11-15T01:48:00;99164.03;;;11.99;59.77
26823;BME280;14852;51.910;8.878;2022-11-15T01:50:44;99171.50;;;11.91;60.33
26823;BME280;14852;51.910;8.878;2022-11-15T01:53:30;99171.19;;;11.83;60.18
26823;BME280;14852;51.910;8.878;2022-11-15T01:56:20;99158.59;;;11.77;60.55
26823;BME280;14852;51.910;8.878;2022-11-15T01:59:07;99151.16;;;11.71;60.77
26823;BME280;14852;51.910;8.878;2022-11-15T02:01:52;99150.41;;;11.69;60.93
26823;BME280;14852;51.910;8.878;2022-11-15T02:04:46;99153.97;;;11.68;61.22
26823;BME280;14852;51.910;8.878;2022-11-15T02:07:32;99149.81;;;11.65;61.23
26823;BME280;14852;51.910;8.878;2022-11-15T02:10:21;99155.13;;;11.64;61.13
26823;BME280;14852;51.910;8.878;2022-11-15T02:13:06;99144.81;;;11.62;61.45
26823;BME280;14852;51.910;8.878;2022-11-15T02:16:14;99151.44;;;11.66;61.53
26823;BME280;14852;51.910;8.878;2022-11-15T02:23:24;99148.44;;;11.59;61.25
26823;BME280;14852;51.910;8.878;2022-11-15T02:29:14;99152.06;;;11.57;61.42
26823;BME280;14852;51.910;8.878;2022-11-15T02:32:16;99142.31;;;11.60;61.19
26823;BME280;14852;51.910;8.878;2022-11-15T02:41:42;99154.00;;;11.80;61.50
26823;BME280;14852;51.910;8.878;2022-11-15T02:44:36;99147.47;;;11.87;61.36
26823;BME280;14852;51.910;8.878;2022-11-15T02:47:24;99162.38;;;11.98;61.40
26823;BME280;14852;51.910;8.878;2022-11-15T02:50:16;99163.22;;;12.11;61.56
26823;BME280;14852;51.910;8.878;2022-11-15T02:53:02;99158.94;;;12.23;61.26
26823;BME280;14852;51.910;8.878;2022-11-15T02:55:50;99153.69;;;12.36;61.63
26823;BME280;14852;51.910;8.878;2022-11-15T02:59:04;99144.31;;;12.46;61.14
26823;BME280;14852;51.910;8.878;2022-11-15T03:02:32;99136.59;;;12.57;61.21
26823;BME280;14852;51.910;8.878;2022-11-15T03:05:51;99137.91;;;12.62;61.34
26823;BME280;14852;51.910;8.878;2022-11-15T03:11:53;99137.25;;;12.72;61.25
26823;BME280;14852;51.910;8.878;2022-11-15T03:15:01;99132.22;;;12.81;61.43
26823;BME280;14852;51.910;8.878;2022-11-15T03:17:57;99126.88;;;12.83;61.48
26823;BME280;14852;51.910;8.878;2022-11-15T03:20:45;99125.13;;;12.83;61.47
26823;BME280;14852;51.910;8.878;2022-11-15T03:23:31;99121.78;;;12.81;61.50
26823;BME280;14852;51.910;8.878;2022-11-15T03:26:17;99123.44;;;12.82;61.86
26823;BME280;14852;51.910;8.878;2022-11-15T03:29:21;99124.28;;;12.83;62.08
26823;BME280;14852;51.910;8.878;2022-11-15T03:32:14;99126.88;;;12.83;62.18
26823;BME280;14852;51.910;8.878;2022-11-15T03:41:04;99124.66;;;12.65;61.99
26823;BME280;14852;51.910;8.878;2022-11-15T03:44:03;99128.75;;;12.57;62.16
26823;BME280;14852;51.910;8.878;2022-11-15T03:47:06;99126.56;;;12.51;62.24
26823;BME280;14852;51.910;8.878;2022-11-15T03:50:04;99127.13;;;12.43;62.39
26823;BME280;14852;51.910;8.878;2022-11-15T03:52:54;99128.16;;;12.41;62.26
26823;BME280;14852;51.910;8.878;2022-11-15T03:55:39;99125.66;;;12.39;62.34
26823;BME280;14852;51.910;8.878;2022-11-15T03:58:23;99124.94;;;12.37;62.39
26823;BME280;14852;51.910;8.878;2022-11-15T04:01:08;99130.25;;;12.36;62.20
26823;BME280;14852;51.910;8.878;2022-11-15T04:03:53;99124.75;;;12.27;62.46
26823;BME280;14852;51.910;8.878;2022-11-15T04:06:37;99128.09;;;12.17;62.68
26823;BME280;14852;51.910;8.878;2022-11-15T04:09:22;99133.94;;;12.08;62.83
26823;BME280;14852;51.910;8.878;2022-11-15T04:12:06;99138.41;;;11.93;62.24
26823;BME280;14852;51.910;8.878;2022-11-15T04:14:51;99132.75;;;11.74;62.95
26823;BME280;14852;51.910;8.878;2022-11-15T04:17:54;99137.31;;;11.70;63.45
26823;BME280;14852;51.910;8.878;2022-11-15T04:20:39;99131.47;;;11.67;63.00
26823;BME280;14852;51.910;8.878;2022-11-15T04:23:42;99129.94;;;11.64;62.81
26823;BME280;14852;51.910;8.878;2022-11-15T04:26:38;99135.22;;;11.63;63.02
26823;BME280;14852;51.910;8.878;2022-11-15T04:29:23;99144.06;;;11.60;62.86
26823;BME280;14852;51.910;8.878;2022-11-15T04:32:19;99143.44;;;11.56;62.89
26823;BME280;14852;51.910;8.878;2022-11-15T04:35:04;99145.19;;;11.56;63.36
26823;BME280;14852;51.910;8.878;2022-11-15T04:37:49;99141.66;;;11.57;62.92
26823;BME280;14852;51.910;8.878;2022-11-15T04:40:34;99135.44;;;11.59;63.26
26823;BME280;14852;51.910;8.878;2022-11-15T04:43:19;99128.25;;;11.63;63.13
26823;BME280;14852;51.910;8.878;2022-11-15T04:46:03;99137.00;;;11.62;63.13
26823;BME280;14852;51.910;8.878;2022-11-15T04:48:48;99129.94;;;11.64;62.70
26823;BME280;14852;51.910;8.878;2022-11-15T04:51:33;99130.03;;;11.63;62.77
26823;BME280;14852;51.910;8.878;2022-11-15T04:54:17;99130.03;;;11.63;63.21
26823;BME280;14852;51.910;8.878;2022-11-15T04:57:02;99128.16;;;11.65;62.88
26823;BME280;14852;51.910;8.878;2022-11-15T04:59:56;99125.13;;;11.71;63.24
26823;BME280;14852;51.910;8.878;2022-11-15T05:02:40;99135.34;;;11.74;63.23
26823;BME280;14852;51.910;8.878;2022-11-15T05:05:43;99133.19;;;11.80;62.92
26823;BME280;14852;51.910;8.878;2022-11-15T05:08:28;99136.31;;;11.85;62.68
26823;BME280;14852;51.910;8.878;2022-11-15T05:11:13;99131.53;;;11.92;62.94
26823;BME280;14852;51.910;8.878;2022-11-15T05:13:57;99140.72;;;11.98;62.81
26823;BME280;14852;51.910;8.878;2022-11-15T05:16:42;99138.59;;;12.03;62.90
26823;BME280;14852;51.910;8.878;2022-11-15T05:19:27;99130.59;;;12.06;63.11
26823;BME280;14852;51.910;8.878;2022-11-15T05:22:11;99124.44;;;12.07;62.94
26823;BME280;14852;51.910;8.878;2022-11-15T05:24:56;99125.91;;;12.11;63.26
26823;BME280;14852;51.910;8.878;2022-11-15T05:27:40;99129.66;;;12.19;63.11
26823;BME280;14852;51.910;8.878;2022-11-15T05:30:25;99127.97;;;12.31;63.04
26823;BME280;14852;51.910;8.878;2022-11-15T05:33:09;99131.81;;;12.38;62.79
26823;BME280;14852;51.910;8.878;2022-11-15T05:39:09;99133.84;;;12.58;63.06
26823;BME280;14852;51.910;8.878;2022-11-15T05:42:14;99126.00;;;12.71;62.58
26823;BME280;14852;51.910;8.878;2022-11-15T05:45:00;99130.56;;;12.80;62.92
26823;BME280;14852;51.910;8.878;2022-11-15T05:47:47;99126.69;;;12.86;62.97
26823;BME280;14852;51.910;8.878;2022-11-15T05:50:32;99130.41;;;12.94;62.92
26823;BME280;14852;51.910;8.878;2022-11-15T05:53:19;99130.69;;;13.02;62.91
26823;BME280;14852;51.910;8.878;2022-11-15T05:56:06;99126.19;;;13.04;62.79
26823;BME280;14852;51.910;8.878;2022-11-15T05:58:53;99129.41;;;13.08;62.89
26823;BME280;14852;51.910;8.878;2022-11-15T06:01:39;99128.13;;;13.14;63.06
26823;BME280;14852;51.910;8.878;2022-11-15T06:04:25;99129.28;;;13.22;62.98
26823;BME280;14852;51.910;8.878;2022-11-15T06:07:09;99120.41;;;13.25;62.71
26823;BME280;14852;51.910;8.878;2022-11-15T06:09:53;99120.97;;;13.28;62.70
26823;BME280;14852;51.910;8.878;2022-11-15T06:12:38;99125.16;;;13.31;62.99
26823;BME280;14852;51.910;8.878;2022-11-15T06:15:22;99116.50;;;13.30;62.94
26823;BME280;14852;51.910;8.878;2022-11-15T06:18:07;99111.06;;;13.33;62.89
26823;BME280;14852;51.910;8.878;2022-11-15T06:20:52;99108.56;;;13.32;62.82
26823;BME280;14852;51.910;8.878;2022-11-15T06:23:36;99106.88;;;13.31;62.96
26823;BME280;14852;51.910;8.878;2022-11-15T06:26:21;99113.66;;;13.33;63.10
26823;BME280;14852;51.910;8.878;2022-11-15T06:29:05;99110.00;;;13.36;62.95
26823;BME280;14852;51.910;8.878;2022-11-15T06:31:50;99107.03;;;13.40;63.19
26823;BME280;14852;51.910;8.878;2022-11-15T06:34:34;99111.09;;;13.45;63.19
26823;BME280;14852;51.910;8.878;2022-11-15T06:37:20;99105.75;;;13.46;62.56
26823;BME280;14852;51.910;8.878;2022-11-15T06:40:06;99114.53;;;13.45;62.91
26823;BME280;14852;51.910;8.878;2022-11-15T06:42:50;99112.66;;;13.47;62.79
26823;BME280;14852;51.910;8.878;2022-11-15T06:45:35;99117.03;;;13.47;62.71
26823;BME280;14852;51.910;8.878;2022-11-15T06:48:19;99123.09;;;13.47;62.82
26823;BME280;14852;51.910;8.878;2022-11-15T06:51:05;99134.34;;;13.48;62.70
26823;BME280;14852;51.910;8.878;2022-11-15T06:53:49;99130.56;;;13.52;62.60
26823;BME280;14852;51.910;8.878;2022-11-15T06:56:34;99130.94;;;13.58;62.62
26823;BME280;14852;51.910;8.878;2022-11-15T06:59:18;99133.34;;;13.61;62.39
26823;BME280;14852;51.910;8.878;2022-11-15T07:02:03;99132.75;;;13.69;61.97
26823;BME280;14852;51.910;8.878;2022-11-15T07:04:48;99137.16;;;13.80;61.86
26823;BME280;14852;51.910;8.878;2022-11-15T07:07:32;99136.56;;;13.87;62.08
26823;BME280;14852;51.910;8.878;2022-11-15T07:10:17;99133.75;;;13.90;61.79
26823;BME280;14852;51.910;8.878;2022-11-15T07:13:01;99135.41;;;13.91;61.83
26823;BME280;14852;51.910;8.878;2022-11-15T07:15:46;99138.03;;;13.91;61.62
26823;BME280;14852;51.910;8.878;2022-11-15T07:18:31;99141.56;;;13.90;61.96
26823;BME280;14852;51.910;8.878;2022-11-15T07:21:17;99140.63;;;13.91;62.04
26823;BME280;14852;51.910;8.878;2022-11-15T07:24:02;99132.91;;;14.01;61.74
26823;BME280;14852;51.910;8.878;2022-11-15T07:26:48;99127.09;;;14.08;61.56
26823;BME280;14852;51.910;8.878;2022-11-15T07:29:32;99133.66;;;14.14;61.45
26823;BME280;14852;51.910;8.878;2022-11-15T07:32:17;99134.13;;;14.19;61.40
26823;BME280;14852;51.910;8.878;2022-11-15T07:35:02;99123.09;;;14.27;61.14
26823;BME280;14852;51.910;8.878;2022-11-15T07:37:58;99128.44;;;14.36;60.91
26823;BME280;14852;51.910;8.878;2022-11-15T07:40:43;99138.19;;;14.45;61.43
26823;BME280;14852;51.910;8.878;2022-11-15T07:43:27;99131.28;;;14.56;60.73
26823;BME280;14852;51.910;8.878;2022-11-15T07:46:12;99135.66;;;14.66;61.00
26823;BME280;14852;51.910;8.878;2022-11-15T07:48:57;99121.75;;;14.77;60.57
26823;BME280;14852;51.910;8.878;2022-11-15T07:51:41;99124.38;;;14.88;60.37
26823;BME280;14852;51.910;8.878;2022-11-15T07:54:26;99132.19;;;14.99;59.91
26823;BME280;14852;51.910;8.878;2022-11-15T07:57:12;99132.72;;;15.14;60.20
26823;BME280;14852;51.910;8.878;2022-11-15T07:59:56;99144.25;;;15.23;59.80
26823;BME280;14852;51.910;8.878;2022-11-15T08:02:41;99136.47;;;15.32;59.73
26823;BME280;14852;51.910;8.878;2022-11-15T08:05:25;99143.31;;;15.44;59.42
26823;BME280;14852;51.910;8.878;2022-11-15T08:08:13;99144.13;;;15.56;59.31
26823;BME280;14852;51.910;8.878;2022-11-15T08:10:58;99143.13;;;15.68;59.28
26823;BME280;14852;51.910;8.878;2022-11-15T08:13:43;99147.34;;;15.80;59.15
26823;BME280;14852;51.910;8.878;2022-11-15T08:16:27;99150.13;;;15.88;58.99
26823;BME280;14852;51.910;8.878;2022-11-15T08:19:12;99138.28;;;15.94;59.11
26823;BME280;14852;51.910;8.878;2022-11-15T08:21:56;99141.25;;;16.01;58.58
26823;BME280;14852;51.910;8.878;2022-11-15T08:24:41;99140.47;;;16.10;58.70
26823;BME280;14852;51.910;8.878;2022-11-15T08:27:25;99144.22;;;16.17;58.25
26823;BME280;14852;51.910;8.878;2022-11-15T08:30:11;99127.44;;;16.29;57.97
26823;BME280;14852;51.910;8.878;2022-11-15T08:32:57;99126.50;;;16.40;57.88
26823;BME280;14852;51.910;8.878;2022-11-15T08:35:43;99130.03;;;16.59;57.73
26823;BME280;14852;51.910;8.878;2022-11-15T08:38:28;99122.00;;;16.82;57.01
26823;BME280;14852;51.910;8.878;2022-11-15T08:41:31;99121.69;;;16.75;57.32
26823;BME280;14852;51.910;8.878;2022-11-15T08:44:16;99124.59;;;16.72;57.41
26823;BME280;14852;51.910;8.878;2022-11-15T08:47:01;99129.69;;;16.74;57.12
26823;BME280;14852;51.910;8.878;2022-11-15T08:49:45;99128.06;;;16.82;57.27
26823;BME280;14852;51.910;8.878;2022-11-15T08:52:30;99135.25;;;18.05;55.07
26823;BME280;14852;51.910;8.878;2022-11-15T08:55:14;99128.56;;;19.74;51.91
26823;BME280;14852;51.910;8.878;2022-11-15T08:57:59;99126.00;;;21.34;49.16
26823;BME280;14852;51.910;8.878;2022-11-15T09:00:43;99124.56;;;22.35;46.94
26823;BME280;14852;51.910;8.878;2022-11-15T09:03:28;99113.25;;;22.89;46.99
26823;BME280;14852;51.910;8.878;2022-11-15T09:06:13;99113.09;;;23.36;45.30
26823;BME280;14852;51.910;8.878;2022-11-15T09:08:57;99116.66;;;23.05;46.18
26823;BME280;14852;51.910;8.878;2022-11-15T09:11:42;99120.53;;;22.95;46.96
26823;BME280;14852;51.910;8.878;2022-11-15T09:14:26;99132.72;;;22.26;47.78
26823;BME280;14852;51.910;8.878;2022-11-15T09:17:11;99136.38;;;21.27;49.73
26823;BME280;14852;51.910;8.878;2022-11-15T09:19:55;99126.59;;;20.53;51.44
26823;BME280;14852;51.910;8.878;2022-11-15T09:22:40;99129.13;;;21.38;50.31
26823;BME280;14852;51.910;8.878;2022-11-15T09:25:24;99120.28;;;22.34;47.56
26823;BME280;14852;51.910;8.878;2022-11-15T09:28:09;99109.88;;;23.26;46.20
26823;BME280;14852;51.910;8.878;2022-11-15T09:31:05;99109.72;;;23.50;46.06
26823;BME280;14852;51.910;8.878;2022-11-15T09:33:49;99113.59;;;23.62;45.49
26823;BME280;14852;51.910;8.878;2022-11-15T09:36:34;99104.06;;;24.05;45.06
26823;BME280;14852;51.910;8.878;2022-11-15T09:39:19;99103.59;;;24.02;44.36
26823;BME280;14852;51.910;8.878;2022-11-15T09:45:20;99103.56;;;23.72;45.16
26823;BME280;14852;51.910;8.878;2022-11-15T09:51:18;99100.94;;;23.87;44.71
26823;BME280;14852;51.910;8.878;2022-11-15T09:56:41;99101.75;;;23.88;45.06
26823;BME280;14852;51.910;8.878;2022-11-15T10:00:08;99103.44;;;23.20;45.75
26823;BME280;14852;51.910;8.878;2022-11-15T10:05:29;99106.94;;;22.12;47.01
26823;BME280;14852;51.910;8.878;2022-11-15T10:08:25;99099.88;;;22.43;46.68
26823;BME280;14852;51.910;8.878;2022-11-15T10:11:06;99101.16;;;22.55;45.84
26823;BME280;14852;51.910;8.878;2022-11-15T10:13:36;99096.38;;;22.51;45.76
26823;BME280;14852;51.910;8.878;2022-11-15T10:22:28;99082.22;;;23.66;44.83
26823;BME280;14852;51.910;8.878;2022-11-15T10:25:27;99080.06;;;23.84;44.94
26823;BME280;14852;51.910;8.878;2022-11-15T10:30:52;99063.41;;;23.75;44.21
26823;BME280;14852;51.910;8.878;2022-11-15T10:33:37;99065.94;;;23.69;43.81
26823;BME280;14852;51.910;8.878;2022-11-15T10:41:30;99046.31;;;23.40;43.66
26823;BME280;14852;51.910;8.878;2022-11-15T10:49:28;99042.06;;;22.86;42.62
26823;BME280;14852;51.910;8.878;2022-11-15T10:52:13;99027.53;;;22.51;43.39
26823;BME280;14852;51.910;8.878;2022-11-15T10:54:52;99023.94;;;21.96;43.62
26823;BME280;14852;51.910;8.878;2022-11-15T10:57:22;99022.16;;;21.81;43.98
26823;BME280;14852;51.910;8.878;2022-11-15T10:59:56;99023.91;;;21.57;44.10
26823;BME280;14852;51.910;8.878;2022-11-15T11:02:38;99025.41;;;21.19;44.10
26823;BME280;14852;51.910;8.878;2022-11-15T11:05:37;99020.56;;;20.74;44.98
26823;BME280;14852;51.910;8.878;2022-11-15T11:08:22;99015.44;;;20.73;45.31
26823;BME280;14852;51.910;8.878;2022-11-15T11:10:56;99017.25;;;20.64;45.02
26823;BME280;14852;51.910;8.878;2022-11-15T11:13:32;99018.03;;;20.56;45.32
26823;BME280;14852;51.910;8.878;2022-11-15T11:16:22;99011.91;;;20.40;45.55
26823;BME280;14852;51.910;8.878;2022-11-15T11:25:23;99023.34;;;20.14;45.76
26823;BME280;14852;51.910;8.878;2022-11-15T11:34:04;99009.44;;;19.70;45.90
26823;BME280;14852;51.910;8.878;2022-11-15T11:37:03;99004.22;;;19.52;45.80
26823;BME280;14852;51.910;8.878;2022-11-15T11:39:55;98997.31;;;19.34;45.08
26823;BME280;14852;51.910;8.878;2022-11-15T11:48:42;98987.22;;;19.03;45.11
26823;BME280;14852;51.910;8.878;2022-11-15T11:54:01;98984.75;;;18.84;45.82
26823;BME280;14852;51.910;8.878;2022-11-15T11:56:33;98981.75;;;18.79;45.68
26823;BME280;14852;51.910;8.878;2022-11-15T11:59:46;98975.53;;;18.80;45.66
26823;BME280;14852;51.910;8.878;2022-11-15T12:02:38;98968.34;;;18.72;45.97
26823;BME280;14852;51.910;8.878;2022-11-15T12:08:57;98953.53;;;18.71;46.14
26823;BME280;14852;51.910;8.878;2022-11-15T12:12:07;98953.38;;;18.55;46.27
26823;BME280;14852;51.910;8.878;2022-11-15T12:14:50;98946.00;;;18.41;46.62
26823;BME280;14852;51.910;8.878;2022-11-15T12:17:23;98938.63;;;18.27;47.15
26823;BME280;14852;51.910;8.878;2022-11-15T12:19:49;98937.72;;;18.18;47.20
26823;BME280;14852;51.910;8.878;2022-11-15T12:22:20;98938.16;;;18.14;47.21
26823;BME280;14852;51.910;8.878;2022-11-15T12:25:50;98938.00;;;18.15;47.47
26823;BME280;14852;51.910;8.878;2022-11-15T12:30:54;98928.94;;;18.09;47.78
26823;BME280;14852;51.910;8.878;2022-11-15T12:33:42;98919.13;;;18.02;48.08
26823;BME280;14852;51.910;8.878;2022-11-15T12:39:02;98922.47;;;17.77;48.73
26823;BME280;14852;51.910;8.878;2022-11-15T12:41:40;98915.84;;;17.72;48.67
26823;BME280;14852;51.910;8.878;2022-11-15T13:00:04;98911.56;;;17.71;48.97
26823;BME280;14852;51.910;8.878;2022-11-15T13:02:47;98905.34;;;17.72;49.06
26823;BME280;14852;51.910;8.878;2022-11-15T13:17:47;98888.41;;;17.85;47.44
26823;BME280;14852;51.910;8.878;2022-11-15T13:26:15;98889.13;;;17.77;47.75
26823;BME280;14852;51.910;8.878;2022-11-15T13:28:45;98893.31;;;17.70;47.12
26823;BME280;14852;51.910;8.878;2022-11-15T13:31:27;98889.03;;;17.69;47.32
26823;BME280;14852;51.910;8.878;2022-11-15T13:33:58;98896.53;;;17.64;47.11
26823;BME280;14852;51.910;8.878;2022-11-15T13:36:32;98886.69;;;17.66;47.17
26823;BME280;14852;51.910;8.878;2022-11-15T13:41:50;98881.00;;;17.70;46.82
26823;BME280;14852;51.910;8.878;2022-11-15T13:44:29;98883.09;;;17.67;46.50
26823;BME280;14852;51.910;8.878;2022-11-15T13:47:14;98882.84;;;17.60;46.85
26823;BME280;14852;51.910;8.878;2022-11-15T13:49:41;98879.16;;;17.53;46.56
26823;BME280;14852;51.910;8.878;2022-11-15T13:52:11;98869.75;;;17.51;46.63
26823;BME280;14852;51.910;8.878;2022-11-15T13:55:13;98860.75;;;17.53;46.94
26823;BME280;14852;51.910;8.878;2022-11-15T13:57:46;98865.47;;;17.50;46.75
26823;BME280;14852;51.910;8.878;2022-11-15T14:01:11;98863.81;;;17.49;46.48
26823;BME280;14852;51.910;8.878;2022-11-15T14:03:27;98862.97;;;17.48;46.81
26823;BME280;14852;51.910;8.878;2022-11-15T14:06:14;98847.66;;;17.44;46.61
26823;BME280;14852;51.910;8.878;2022-11-15T14:11:24;98848.09;;;17.39;46.87
26823;BME280;14852;51.910;8.878;2022-11-15T14:16:37;98848.53;;;17.34;47.05
26823;BME280;14852;51.910;8.878;2022-11-15T14:19:05;98847.84;;;17.32;46.98
26823;BME280;14852;51.910;8.878;2022-11-15T14:21:32;98842.72;;;17.31;46.79
26823;BME280;14852;51.910;8.878;2022-11-15T14:24:18;98846.72;;;17.35;47.03
26823;BME280;14852;51.910;8.878;2022-11-15T14:26:45;98838.47;;;17.30;46.91
26823;BME280;14852;51.910;8.878;2022-11-15T14:29:25;98843.03;;;17.28;46.41
26823;BME280;14852;51.910;8.878;2022-11-15T14:31:53;98838.22;;;17.23;46.58
26823;BME280;14852;51.910;8.878;2022-11-15T14:34:19;98837.38;;;17.23;46.66
26823;BME280;14852;51.910;8.878;2022-11-15T14:36:47;98835.72;;;17.22;46.14
26823;BME280;14852;51.910;8.878;2022-11-15T14:39:13;98829.78;;;17.20;46.56
26823;BME280;14852;51.910;8.878;2022-11-15T14:41:39;98829.78;;;17.20;46.80
26823;BME280;14852;51.910;8.878;2022-11-15T14:44:06;98826.06;;;17.22;46.59
26823;BME280;14852;51.910;8.878;2022-11-15T14:46:32;98833.41;;;17.19;46.74
26823;BME280;14852;51.910;8.878;2022-11-15T14:48:58;98823.34;;;17.14;46.54
26823;BME280;14852;51.910;8.878;2022-11-15T14:51:23;98825.41;;;17.11;46.40
26823;BME280;14852;51.910;8.878;2022-11-15T14:53:49;98824.06;;;17.07;46.74
26823;BME280;14852;51.910;8.878;2022-11-15T14:56:16;98821.72;;;17.04;46.90
26823;BME280;14852;51.910;8.878;2022-11-15T14:58:42;98822.81;;;17.01;47.08
26823;BME280;14852;51.910;8.878;2022-11-15T15:01:25;98823.66;;;17.01;46.98
26823;BME280;14852;51.910;8.878;2022-11-15T15:03:52;98817.16;;;17.06;46.88
26823;BME280;14852;51.910;8.878;2022-11-15T15:06:21;98816.19;;;16.97;46.95
26823;BME280;14852;51.910;8.878;2022-11-15T15:08:47;98808.78;;;16.92;46.93
26823;BME280;14852;51.910;8.878;2022-11-15T15:11:30;98804.63;;;16.90;47.42
26823;BME280;14852;51.910;8.878;2022-11-15T15:13:57;98804.38;;;16.83;47.32
26823;BME280;14852;51.910;8.878;2022-11-15T15:16:25;98799.44;;;16.80;47.61
26823;BME280;14852;51.910;8.878;2022-11-15T15:18:52;98796.38;;;16.75;47.86
26823;BME280;14852;51.910;8.878;2022-11-15T15:21:27;98800.94;;;16.73;47.66
26823;BME280;14852;51.910;8.878;2022-11-15T15:23:53;98791.03;;;16.67;47.91
26823;BME280;14852;51.910;8.878;2022-11-15T15:26:23;98793.78;;;16.65;48.01
26823;BME280;14852;51.910;8.878;2022-11-15T15:28:49;98805.38;;;16.63;48.02
26823;BME280;14852;51.910;8.878;2022-11-15T15:31:16;98799.72;;;16.58;48.24
26823;BME280;14852;51.910;8.878;2022-11-15T15:33:42;98793.53;;;16.59;48.61
26823;BME280;14852;51.910;8.878;2022-11-15T15:36:13;98791.16;;;16.56;48.72
26823;BME280;14852;51.910;8.878;2022-11-15T15:38:39;98794.06;;;16.53;48.55
26823;BME280;14852;51.910;8.878;2022-11-15T15:41:15;98794.38;;;16.50;48.56
26823;BME280;14852;51.910;8.878;2022-11-15T15:43:41;98783.31;;;16.46;48.85
26823;BME280;14852;51.910;8.878;2022-11-15T15:46:25;98774.50;;;16.47;48.92
26823;BME280;14852;51.910;8.878;2022-11-15T15:48:51;98779.19;;;16.44;48.74
26823;BME280;14852;51.910;8.878;2022-11-15T15:51:17;98777.66;;;16.41;49.13
26823;BME280;14852;51.910;8.878;2022-11-15T15:53:43;98780.59;;;16.38;49.34
26823;BME280;14852;51.910;8.878;2022-11-15T15:56:09;98771.91;;;16.38;49.54
26823;BME280;14852;51.910;8.878;2022-11-15T15:58:35;98766.78;;;16.36;49.24
26823;BME280;14852;51.910;8.878;2022-11-15T16:01:01;98766.78;;;16.36;49.35
26823;BME280;14852;51.910;8.878;2022-11-15T16:03:27;98767.75;;;16.35;49.95
26823;BME280;14852;51.910;8.878;2022-11-15T16:05:53;98769.56;;;16.35;49.44
26823;BME280;14852;51.910;8.878;2022-11-15T16:08:23;98766.09;;;16.34;49.59
26823;BME280;14852;51.910;8.878;2022-11-15T16:10:49;98769.97;;;16.30;49.86
26823;BME280;14852;51.910;8.878;2022-11-15T16:13:16;98759.75;;;16.27;50.03
26823;BME280;14852;51.910;8.878;2022-11-15T16:15:43;98758.13;;;16.26;50.06
26823;BME280;14852;51.910;8.878;2022-11-15T16:18:16;98751.22;;;16.25;50.10
26823;BME280;14852;51.910;8.878;2022-11-15T16:20:47;98755.63;;;16.24;50.21
26823;BME280;14852;51.910;8.878;2022-11-15T16:23:17;98748.03;;;16.21;50.52
26823;BME280;14852;51.910;8.878;2022-11-15T16:25:46;98744.88;;;16.18;50.76
26823;BME280;14852;51.910;8.878;2022-11-15T16:30:47;98736.63;;;16.03;51.35
26823;BME280;14852;51.910;8.878;2022-11-15T16:33:13;98735.25;;;15.99;51.57
26823;BME280;14852;51.910;8.878;2022-11-15T16:35:39;98726.81;;;15.96;51.51